createdAt,value
2018-09-19T00:00:42.345Z,1019.13
2018-09-19T00:01:42.457Z,1019.19
2018-09-19T00:02:42.396Z,1019.13
2018-09-19T00:03:42.371Z,1019.14
2018-09-19T00:04:42.343Z,1019.15
2018-09-19T00:05:42.918Z,1019.14
2018-09-19T00:06:42.323Z,1019.16
2018-09-19T00:07:42.399Z,1019.17
2018-09-19T00:08:43.260Z,1019.17
2018-09-19T00:09:42.345Z,1019.18
2018-09-19T00:10:42.351Z,1019.2
2018-09-19T00:11:42.308Z,1019.18
2018-09-19T00:12:42.314Z,1019.17
2018-09-19T00:13:42.447Z,1019.17
2018-09-19T00:14:42.516Z,1019.2
2018-09-19T00:15:42.390Z,1019.2
2018-09-19T00:16:42.319Z,1019.2
2018-09-19T00:17:42.418Z,1019.22
2018-09-19T00:18:42.315Z,1019.24
2018-09-19T00:19:42.810Z,1019.19
2018-09-19T00:20:42.348Z,1019.29
2018-09-19T00:21:42.336Z,1019.32
2018-09-19T00:22:42.304Z,1019.33
2018-09-19T00:23:42.314Z,1019.34
2018-09-19T00:24:42.383Z,1019.32
2018-09-19T00:25:42.528Z,1019.32
2018-09-19T00:26:42.668Z,1019.29
2018-09-19T00:27:42.386Z,1019.32
2018-09-19T00:28:42.320Z,1019.27
2018-09-19T00:29:42.457Z,1019.3
2018-09-19T00:30:42.314Z,1019.31
2018-09-19T00:31:42.607Z,1019.36
2018-09-19T00:32:42.534Z,1019.35
2018-09-19T00:33:42.334Z,1019.31
2018-09-19T00:34:42.335Z,1019.32
2018-09-19T00:35:42.376Z,1019.32
2018-09-19T00:36:42.390Z,1019.37
2018-09-19T00:37:42.434Z,1019.36
2018-09-19T00:38:42.491Z,1019.32
2018-09-19T00:39:42.356Z,1019.33
2018-09-19T00:40:42.358Z,1019.36
2018-09-19T00:41:42.334Z,1019.38
2018-09-19T00:42:42.435Z,1019.34
2018-09-19T00:43:42.390Z,1019.35
2018-09-19T00:44:42.503Z,1019.37
2018-09-19T00:45:42.333Z,1019.39
2018-09-19T00:46:42.356Z,1019.35
2018-09-19T00:47:42.363Z,1019.41
2018-09-19T00:48:42.579Z,1019.43
2018-09-19T00:49:42.399Z,1019.45
2018-09-19T00:50:42.342Z,1019.45
2018-09-19T00:51:42.775Z,1019.43
2018-09-19T00:52:42.392Z,1019.46
2018-09-19T00:53:42.359Z,1019.49
2018-09-19T00:54:42.395Z,1019.52
2018-09-19T00:55:42.363Z,1019.51
2018-09-19T00:56:42.416Z,1019.48
2018-09-19T00:57:42.355Z,1019.5
2018-09-19T00:58:42.554Z,1019.54
2018-09-19T00:59:42.382Z,1019.49
2018-09-19T01:00:42.597Z,1019.52
2018-09-19T01:01:42.383Z,1019.51
2018-09-19T01:02:42.340Z,1019.5
2018-09-19T01:03:42.381Z,1019.5
2018-09-19T01:04:42.348Z,1019.47
2018-09-19T01:05:42.395Z,1019.49
2018-09-19T01:06:42.367Z,1019.48
2018-09-19T01:07:42.452Z,1019.45
2018-09-19T01:08:42.413Z,1019.46
2018-09-19T01:09:42.377Z,1019.46
2018-09-19T01:10:42.649Z,1019.45
2018-09-19T01:11:42.361Z,1019.44
2018-09-19T01:12:42.389Z,1019.46
2018-09-19T01:13:42.403Z,1019.44
2018-09-19T01:14:42.355Z,1019.49
2018-09-19T01:15:42.362Z,1019.5
2018-09-19T01:16:42.369Z,1019.47
2018-09-19T01:17:42.355Z,1019.51
2018-09-19T01:18:42.353Z,1019.5
2018-09-19T01:19:42.384Z,1019.51
2018-09-19T01:20:42.538Z,1019.49
2018-09-19T01:21:42.464Z,1019.5
2018-09-19T01:22:42.717Z,1019.5
2018-09-19T01:23:42.363Z,1019.46
2018-09-19T01:24:42.365Z,1019.48
2018-09-19T01:25:42.491Z,1019.49
2018-09-19T01:26:42.432Z,1019.48
2018-09-19T01:27:42.526Z,1019.46
2018-09-19T01:28:42.413Z,1019.46
2018-09-19T01:29:42.375Z,1019.42
2018-09-19T01:30:42.384Z,1019.47
2018-09-19T01:31:42.548Z,1019.47
2018-09-19T01:32:42.657Z,1019.41
2018-09-19T01:33:42.397Z,1019.43
2018-09-19T01:34:42.381Z,1019.47
2018-09-19T01:35:42.420Z,1019.46
2018-09-19T01:36:42.542Z,1019.47
2018-09-19T01:37:42.365Z,1019.49
2018-09-19T01:38:42.401Z,1019.53
2018-09-19T01:39:42.424Z,1019.5
2018-09-19T01:40:42.448Z,1019.55
2018-09-19T01:41:42.502Z,1019.54
2018-09-19T01:42:42.385Z,1019.5
2018-09-19T01:43:42.377Z,1019.58
2018-09-19T01:44:42.530Z,1019.63
2018-09-19T01:45:42.423Z,1019.61
2018-09-19T01:46:42.421Z,1019.64
2018-09-19T01:47:42.591Z,1019.65
2018-09-19T01:48:43.291Z,1019.62
2018-09-19T01:49:42.507Z,1019.63
2018-09-19T01:50:42.394Z,1019.62
2018-09-19T01:51:42.385Z,1019.62
2018-09-19T01:52:42.392Z,1019.65
2018-09-19T01:53:42.411Z,1019.69
2018-09-19T01:54:42.574Z,1019.71
2018-09-19T01:55:42.401Z,1019.71
2018-09-19T01:56:42.419Z,1019.65
2018-09-19T01:57:42.404Z,1019.7
2018-09-19T01:58:42.737Z,1019.71
2018-09-19T01:59:42.454Z,1019.69
2018-09-19T02:00:42.655Z,1019.71
2018-09-19T02:01:42.443Z,1019.72
2018-09-19T02:02:42.405Z,1019.7
2018-09-19T02:03:42.407Z,1019.73
2018-09-19T02:04:42.659Z,1019.75
2018-09-19T02:05:42.499Z,1019.7
2018-09-19T02:06:42.420Z,1019.69
2018-09-19T02:07:42.406Z,1019.71
2018-09-19T02:08:42.979Z,1019.7
2018-09-19T02:09:43.123Z,1019.68
2018-09-19T02:10:42.480Z,1019.67
2018-09-19T02:11:42.483Z,1019.66
2018-09-19T02:12:42.525Z,1019.63
2018-09-19T02:13:42.422Z,1019.67
2018-09-19T02:14:42.431Z,1019.63
2018-09-19T02:15:42.411Z,1019.66
2018-09-19T02:16:42.573Z,1019.63
2018-09-19T02:17:42.471Z,1019.68
2018-09-19T02:18:42.576Z,1019.66
2018-09-19T02:19:42.523Z,1019.67
2018-09-19T02:20:42.498Z,1019.67
2018-09-19T02:21:42.429Z,1019.7
2018-09-19T02:22:42.510Z,1019.72
2018-09-19T02:23:42.521Z,1019.66
2018-09-19T02:24:42.530Z,1019.72
2018-09-19T02:25:42.410Z,1019.75
2018-09-19T02:26:42.491Z,1019.81
2018-09-19T02:27:42.473Z,1019.78
2018-09-19T02:28:42.610Z,1019.83
2018-09-19T02:29:42.378Z,1019.81
2018-09-19T02:30:42.438Z,1019.8
2018-09-19T02:31:42.415Z,1019.83
2018-09-19T02:32:42.463Z,1019.8
2018-09-19T02:33:42.429Z,1019.83
2018-09-19T02:34:42.435Z,1019.82
2018-09-19T02:35:42.465Z,1019.83
2018-09-19T02:36:42.480Z,1019.82
2018-09-19T02:37:42.443Z,1019.79
2018-09-19T02:38:42.440Z,1019.77
2018-09-19T02:39:42.472Z,1019.79
2018-09-19T02:40:42.498Z,1019.77
2018-09-19T02:41:42.436Z,1019.79
2018-09-19T02:42:42.439Z,1019.79
2018-09-19T02:43:42.456Z,1019.85
2018-09-19T02:44:42.616Z,1019.81
2018-09-19T02:45:42.454Z,1019.79
2018-09-19T02:46:42.439Z,1019.85
2018-09-19T02:47:42.809Z,1019.85
2018-09-19T02:48:42.527Z,1019.88
2018-09-19T02:49:42.538Z,1019.87
2018-09-19T02:50:42.461Z,1019.88
2018-09-19T02:51:42.506Z,1019.86
2018-09-19T02:52:42.540Z,1019.88
2018-09-19T02:53:42.582Z,1019.88
2018-09-19T02:54:42.537Z,1019.86
2018-09-19T02:55:42.480Z,1019.85
2018-09-19T02:56:42.490Z,1019.87
2018-09-19T02:57:42.507Z,1019.87
2018-09-19T02:58:42.603Z,1019.89
2018-09-19T02:59:42.535Z,1019.92
2018-09-19T03:00:42.473Z,1019.96
2018-09-19T03:01:42.460Z,1019.94
2018-09-19T03:02:42.545Z,1019.95
2018-09-19T03:03:42.433Z,1019.98
2018-09-19T03:05:42.572Z,1019.98
2018-09-19T03:06:42.460Z,1019.98
2018-09-19T03:07:42.648Z,1020.01
2018-09-19T03:08:42.519Z,1019.98
2018-09-19T03:09:42.620Z,1019.96
2018-09-19T03:10:42.592Z,1019.99
2018-09-19T03:11:42.627Z,1019.99
2018-09-19T03:12:42.430Z,1019.98
2018-09-19T03:13:42.562Z,1019.97
2018-09-19T03:14:42.578Z,1020.01
2018-09-19T03:15:42.471Z,1020.01
2018-09-19T03:16:42.635Z,1020.03
2018-09-19T03:17:43.024Z,1020.07
2018-09-19T03:18:42.443Z,1020.04
2018-09-19T03:19:42.500Z,1020.09
2018-09-19T03:20:42.480Z,1019.99
2018-09-19T03:21:42.669Z,1020
2018-09-19T03:22:42.460Z,1020.06
2018-09-19T03:23:42.510Z,1020.05
2018-09-19T03:24:42.461Z,1020.09
2018-09-19T03:25:42.478Z,1020.05
2018-09-19T03:26:42.597Z,1020.11
2018-09-19T03:27:42.701Z,1020.09
2018-09-19T03:28:42.488Z,1020.1
2018-09-19T03:29:42.658Z,1020.09
2018-09-19T03:30:42.524Z,1020.07
2018-09-19T03:31:42.693Z,1020.09
2018-09-19T03:32:42.546Z,1020.07
2018-09-19T03:33:42.699Z,1020.07
2018-09-19T03:34:42.465Z,1020.05
2018-09-19T03:35:42.452Z,1020.05
2018-09-19T03:36:42.789Z,1020.1
2018-09-19T03:37:42.470Z,1020.04
2018-09-19T03:38:42.632Z,1020.04
2018-09-19T03:39:42.543Z,1020.05
2018-09-19T03:40:42.549Z,1020.07
2018-09-19T03:41:43.502Z,1020.1
2018-09-19T03:42:42.491Z,1020.12
2018-09-19T03:43:42.467Z,1020.13
2018-09-19T03:44:42.504Z,1020.16
2018-09-19T03:45:42.559Z,1020.15
2018-09-19T03:46:42.519Z,1020.16
2018-09-19T03:47:42.623Z,1020.14
2018-09-19T03:48:42.650Z,1020.13
2018-09-19T03:49:42.488Z,1020.1
2018-09-19T03:50:42.482Z,1020.13
2018-09-19T03:51:42.497Z,1020.11
2018-09-19T03:52:42.474Z,1020.1
2018-09-19T03:53:42.510Z,1020.12
2018-09-19T03:54:42.611Z,1020.15
2018-09-19T03:55:42.926Z,1020.15
2018-09-19T03:56:42.472Z,1020.16
2018-09-19T03:57:42.474Z,1020.21
2018-09-19T03:58:42.502Z,1020.17
2018-09-19T03:59:42.509Z,1020.19
2018-09-19T04:00:42.473Z,1020.19
2018-09-19T04:01:42.506Z,1020.21
2018-09-19T04:02:42.541Z,1020.22
2018-09-19T04:03:42.484Z,1020.2
2018-09-19T04:04:42.484Z,1020.22
2018-09-19T04:05:42.509Z,1020.24
2018-09-19T04:06:42.492Z,1020.25
2018-09-19T04:07:42.526Z,1020.29
2018-09-19T04:08:42.494Z,1020.27
2018-09-19T04:09:42.482Z,1020.25
2018-09-19T04:10:43.051Z,1020.26
2018-09-19T04:11:42.492Z,1020.27
2018-09-19T04:12:42.572Z,1020.27
2018-09-19T04:13:42.539Z,1020.27
2018-09-19T04:14:42.595Z,1020.29
2018-09-19T04:15:42.497Z,1020.29
2018-09-19T04:16:42.667Z,1020.29
2018-09-19T04:17:42.684Z,1020.27
2018-09-19T04:18:42.595Z,1020.31
2018-09-19T04:19:42.592Z,1020.33
2018-09-19T04:20:42.514Z,1020.32
2018-09-19T04:21:42.496Z,1020.29
2018-09-19T04:22:42.550Z,1020.31
2018-09-19T04:23:42.509Z,1020.28
2018-09-19T04:24:42.506Z,1020.3
2018-09-19T04:25:42.547Z,1020.29
2018-09-19T04:26:42.659Z,1020.36
2018-09-19T04:27:42.501Z,1020.31
2018-09-19T04:28:42.545Z,1020.34
2018-09-19T04:29:42.556Z,1020.33
2018-09-19T04:30:42.534Z,1020.36
2018-09-19T04:31:42.663Z,1020.41
2018-09-19T04:32:42.670Z,1020.38
2018-09-19T04:33:42.492Z,1020.37
2018-09-19T04:34:42.706Z,1020.35
2018-09-19T04:35:42.605Z,1020.32
2018-09-19T04:36:42.542Z,1020.33
2018-09-19T04:37:43.007Z,1020.39
2018-09-19T04:38:42.763Z,1020.38
2018-09-19T04:39:42.538Z,1020.41
2018-09-19T04:40:42.719Z,1020.45
2018-09-19T04:41:42.540Z,1020.45
2018-09-19T04:42:42.507Z,1020.42
2018-09-19T04:43:42.535Z,1020.45
2018-09-19T04:44:42.726Z,1020.42
2018-09-19T04:45:42.781Z,1020.45
2018-09-19T04:46:42.583Z,1020.46
2018-09-19T04:47:42.505Z,1020.46
2018-09-19T04:48:42.612Z,1020.48
2018-09-19T04:49:42.509Z,1020.51
2018-09-19T04:50:42.677Z,1020.53
2018-09-19T04:51:42.794Z,1020.55
2018-09-19T04:52:42.571Z,1020.57
2018-09-19T04:53:42.524Z,1020.58
2018-09-19T04:54:42.518Z,1020.57
2018-09-19T04:55:42.525Z,1020.64
2018-09-19T04:56:42.748Z,1020.66
2018-09-19T04:57:42.522Z,1020.66
2018-09-19T04:58:42.669Z,1020.65
2018-09-19T04:59:42.667Z,1020.6
2018-09-19T05:00:42.560Z,1020.65
2018-09-19T05:01:42.596Z,1020.69
2018-09-19T05:02:42.550Z,1020.61
2018-09-19T05:03:42.544Z,1020.66
2018-09-19T05:04:42.593Z,1020.68
2018-09-19T05:05:42.649Z,1020.67
2018-09-19T05:06:42.605Z,1020.7
2018-09-19T05:07:42.648Z,1020.71
2018-09-19T05:08:42.539Z,1020.75
2018-09-19T05:09:42.671Z,1020.77
2018-09-19T05:10:42.969Z,1020.77
2018-09-19T05:11:42.577Z,1020.8
2018-09-19T05:12:42.564Z,1020.81
2018-09-19T05:13:42.565Z,1020.83
2018-09-19T05:14:42.566Z,1020.81
2018-09-19T05:15:42.518Z,1020.83
2018-09-19T05:16:42.634Z,1020.88
2018-09-19T05:17:44.841Z,1020.83
2018-09-19T05:18:42.560Z,1020.88
2018-09-19T05:19:42.557Z,1020.88
2018-09-19T05:20:42.560Z,1020.91
2018-09-19T05:21:42.568Z,1020.94
2018-09-19T05:22:42.563Z,1020.98
2018-09-19T05:23:42.542Z,1020.97
2018-09-19T05:24:42.562Z,1021.02
2018-09-19T05:25:42.557Z,1021.04
2018-09-19T05:26:42.604Z,1021.06
2018-09-19T05:27:42.549Z,1021.05
2018-09-19T05:28:42.591Z,1021.08
2018-09-19T05:29:42.580Z,1021.12
2018-09-19T05:30:43.010Z,1021.15
2018-09-19T05:31:42.876Z,1021.24
2018-09-19T05:32:42.577Z,1021.21
2018-09-19T05:33:42.557Z,1021.26
2018-09-19T05:34:42.553Z,1021.27
2018-09-19T05:35:42.631Z,1021.3
2018-09-19T05:36:42.559Z,1021.29
2018-09-19T05:37:42.584Z,1021.38
2018-09-19T05:38:42.626Z,1021.35
2018-09-19T05:39:42.575Z,1021.39
2018-09-19T05:40:42.712Z,1021.4
2018-09-19T05:41:42.702Z,1021.41
2018-09-19T05:42:42.720Z,1021.4
2018-09-19T05:43:42.622Z,1021.44
2018-09-19T05:44:42.873Z,1021.41
2018-09-19T05:45:42.764Z,1021.4
2018-09-19T05:46:42.627Z,1021.36
2018-09-19T05:47:42.712Z,1021.36
2018-09-19T05:48:42.682Z,1021.32
2018-09-19T05:49:42.551Z,1021.27
2018-09-19T05:50:42.670Z,1021.28
2018-09-19T05:51:42.630Z,1021.31
2018-09-19T05:52:42.609Z,1021.3
2018-09-19T05:53:42.575Z,1021.34
2018-09-19T05:54:42.574Z,1021.33
2018-09-19T05:55:42.744Z,1021.4
2018-09-19T05:56:42.669Z,1021.38
2018-09-19T05:57:42.750Z,1021.4
2018-09-19T05:58:42.683Z,1021.41
2018-09-19T05:59:42.875Z,1021.42
2018-09-19T06:00:42.563Z,1021.48
2018-09-19T06:01:42.863Z,1021.44
2018-09-19T06:02:42.574Z,1021.5
2018-09-19T06:03:42.555Z,1021.49
2018-09-19T06:04:42.784Z,1021.52
2018-09-19T06:05:42.576Z,1021.52
2018-09-19T06:06:42.683Z,1021.5
2018-09-19T06:07:42.559Z,1021.44
2018-09-19T06:08:42.573Z,1021.47
2018-09-19T06:09:42.828Z,1021.47
2018-09-19T06:10:42.554Z,1021.44
2018-09-19T06:11:42.615Z,1021.39
2018-09-19T06:12:42.961Z,1021.4
2018-09-19T06:13:42.805Z,1021.36
2018-09-19T06:14:42.604Z,1021.34
2018-09-19T06:15:42.576Z,1021.32
2018-09-19T06:16:42.684Z,1021.35
2018-09-19T06:17:42.681Z,1021.37
2018-09-19T06:18:43.043Z,1021.33
2018-09-19T06:19:42.585Z,1021.37
2018-09-19T06:20:42.607Z,1021.38
2018-09-19T06:21:42.610Z,1021.38
2018-09-19T06:22:42.605Z,1021.42
2018-09-19T06:23:42.756Z,1021.43
2018-09-19T06:24:42.607Z,1021.43
2018-09-19T06:25:42.726Z,1021.39
2018-09-19T06:26:43.054Z,1021.45
2018-09-19T06:27:42.641Z,1021.45
2018-09-19T06:28:42.793Z,1021.48
2018-09-19T06:29:42.996Z,1021.45
2018-09-19T06:30:42.614Z,1021.46
2018-09-19T06:31:42.684Z,1021.52
2018-09-19T06:32:42.808Z,1021.5
2018-09-19T06:33:42.594Z,1021.49
2018-09-19T06:34:42.603Z,1021.53
2018-09-19T06:35:42.613Z,1021.47
2018-09-19T06:36:43.019Z,1021.5
2018-09-19T06:37:42.639Z,1021.53
2018-09-19T06:38:42.789Z,1021.54
2018-09-19T06:39:42.597Z,1021.55
2018-09-19T06:40:43.200Z,1021.54
2018-09-19T06:41:42.608Z,1021.52
2018-09-19T06:42:42.605Z,1021.5
2018-09-19T06:43:42.783Z,1021.53
2018-09-19T06:44:42.607Z,1021.54
2018-09-19T06:45:42.818Z,1021.51
2018-09-19T06:46:42.713Z,1021.52
2018-09-19T06:47:42.605Z,1021.5
2018-09-19T06:48:42.610Z,1021.53
2018-09-19T06:49:42.606Z,1021.53
2018-09-19T06:50:42.624Z,1021.57
2018-09-19T06:51:42.673Z,1021.57
2018-09-19T06:52:42.597Z,1021.61
2018-09-19T06:53:42.666Z,1021.62
2018-09-19T06:54:42.674Z,1021.58
2018-09-19T06:55:42.642Z,1021.64
2018-09-19T06:56:42.745Z,1021.58
2018-09-19T06:57:43.578Z,1021.59
2018-09-19T06:58:42.756Z,1021.54
2018-09-19T06:59:42.790Z,1021.55
2018-09-19T07:00:42.729Z,1021.53
2018-09-19T07:01:42.690Z,1021.59
2018-09-19T07:02:42.753Z,1021.6
2018-09-19T07:03:43.672Z,1021.59
2018-09-19T07:04:42.845Z,1021.62
2018-09-19T07:05:42.711Z,1021.59
2018-09-19T07:06:42.596Z,1021.61
2018-09-19T07:07:42.652Z,1021.6
2018-09-19T07:08:42.694Z,1021.6
2018-09-19T07:09:42.608Z,1021.63
2018-09-19T07:10:43.456Z,1021.64
2018-09-19T07:11:43.318Z,1021.65
2018-09-19T07:12:42.759Z,1021.61
2018-09-19T07:13:42.636Z,1021.63
2018-09-19T07:14:42.831Z,1021.62
2018-09-19T07:15:42.971Z,1021.61
2018-09-19T07:16:42.665Z,1021.62
2018-09-19T07:17:42.630Z,1021.63
2018-09-19T07:18:42.762Z,1021.61
2018-09-19T07:19:42.708Z,1021.61
2018-09-19T07:20:43.032Z,1021.6
2018-09-19T07:21:42.776Z,1021.57
2018-09-19T07:22:42.727Z,1021.6
2018-09-19T07:23:42.889Z,1021.58
2018-09-19T07:24:42.636Z,1021.56
2018-09-19T07:25:42.698Z,1021.59
2018-09-19T07:26:42.637Z,1021.59
2018-09-19T07:27:42.784Z,1021.6
2018-09-19T07:28:42.755Z,1021.56
2018-09-19T07:29:42.791Z,1021.53
2018-09-19T07:30:42.793Z,1021.53
2018-09-19T07:31:42.637Z,1021.54
2018-09-19T07:32:42.841Z,1021.56
2018-09-19T07:33:42.614Z,1021.54
2018-09-19T07:34:42.747Z,1021.51
2018-09-19T07:35:42.658Z,1021.48
2018-09-19T07:36:43.047Z,1021.5
2018-09-19T07:37:42.639Z,1021.47
2018-09-19T07:38:42.748Z,1021.45
2018-09-19T07:39:42.628Z,1021.45
2018-09-19T07:40:42.777Z,1021.43
2018-09-19T07:41:42.698Z,1021.41
2018-09-19T07:42:42.632Z,1021.45
2018-09-19T07:43:42.779Z,1021.45
2018-09-19T07:44:42.630Z,1021.5
2018-09-19T07:45:42.676Z,1021.5
2018-09-19T07:46:43.746Z,1021.53
2018-09-19T07:47:42.626Z,1021.56
2018-09-19T07:48:42.723Z,1021.5
2018-09-19T07:49:42.630Z,1021.55
2018-09-19T07:50:43.535Z,1021.51
2018-09-19T07:51:42.673Z,1021.53
2018-09-19T07:52:42.662Z,1021.53
2018-09-19T07:53:42.735Z,1021.54
2018-09-19T07:54:42.883Z,1021.57
2018-09-19T07:55:42.645Z,1021.58
2018-09-19T07:56:42.698Z,1021.61
2018-09-19T07:57:42.712Z,1021.64
2018-09-19T07:58:42.637Z,1021.64
2018-09-19T07:59:42.640Z,1021.63
2018-09-19T08:00:43.129Z,1021.64
2018-09-19T08:01:42.657Z,1021.6
2018-09-19T08:02:42.651Z,1021.66
2018-09-19T08:03:43.202Z,1021.64
2018-09-19T08:04:42.635Z,1021.63
2018-09-19T08:05:43.010Z,1021.61
2018-09-19T08:06:42.744Z,1021.59
2018-09-19T08:07:42.681Z,1021.6
2018-09-19T08:08:42.702Z,1021.61
2018-09-19T08:09:42.747Z,1021.61
2018-09-19T08:10:42.768Z,1021.59
2018-09-19T08:11:42.652Z,1021.58
2018-09-19T08:12:42.638Z,1021.58
2018-09-19T08:13:42.892Z,1021.63
2018-09-19T08:14:42.774Z,1021.63
2018-09-19T08:15:42.659Z,1021.67
2018-09-19T08:16:42.787Z,1021.68
2018-09-19T08:17:42.648Z,1021.7
2018-09-19T08:18:42.655Z,1021.72
2018-09-19T08:19:42.666Z,1021.74
2018-09-19T08:20:42.657Z,1021.77
2018-09-19T08:21:42.933Z,1021.81
2018-09-19T08:22:42.802Z,1021.85
2018-09-19T08:23:42.732Z,1021.85
2018-09-19T08:24:42.644Z,1021.85
2018-09-19T08:25:42.703Z,1021.85
2018-09-19T08:26:42.651Z,1021.88
2018-09-19T08:27:42.665Z,1021.87
2018-09-19T08:28:42.739Z,1021.89
2018-09-19T08:29:42.681Z,1021.86
2018-09-19T08:30:42.657Z,1021.88
2018-09-19T08:31:42.685Z,1021.89
2018-09-19T08:32:42.789Z,1021.9
2018-09-19T08:33:42.666Z,1021.89
2018-09-19T08:34:42.647Z,1021.86
2018-09-19T08:35:42.714Z,1021.85
2018-09-19T08:36:42.677Z,1021.89
2018-09-19T08:37:42.653Z,1021.84
2018-09-19T08:38:42.645Z,1021.83
2018-09-19T08:39:42.661Z,1021.85
2018-09-19T08:40:43.602Z,1021.85
2018-09-19T08:41:42.655Z,1021.85
2018-09-19T08:42:43.051Z,1021.83
2018-09-19T08:43:42.706Z,1021.85
2018-09-19T08:44:42.963Z,1021.84
2018-09-19T08:45:43.143Z,1021.88
2018-09-19T08:46:42.723Z,1021.86
2018-09-19T08:47:42.688Z,1021.84
2018-09-19T08:48:42.759Z,1021.86
2018-09-19T08:49:43.012Z,1021.81
2018-09-19T08:50:43.289Z,1021.87
2018-09-19T08:51:42.722Z,1021.85
2018-09-19T08:52:42.673Z,1021.85
2018-09-19T08:53:42.669Z,1021.87
2018-09-19T08:54:42.777Z,1021.81
2018-09-19T08:55:42.772Z,1021.82
2018-09-19T08:56:42.751Z,1021.8
2018-09-19T08:57:42.828Z,1021.81
2018-09-19T08:58:42.916Z,1021.85
2018-09-19T08:59:42.739Z,1021.86
2018-09-19T09:00:42.822Z,1021.87
2018-09-19T09:01:42.725Z,1021.91
2018-09-19T09:02:43.342Z,1021.94
2018-09-19T09:03:42.708Z,1021.9
2018-09-19T09:04:43.114Z,1021.91
2018-09-19T09:05:43.262Z,1021.91
2018-09-19T09:06:42.686Z,1021.95
2018-09-19T09:07:42.685Z,1021.88
2018-09-19T09:08:42.902Z,1021.87
2018-09-19T09:09:42.703Z,1021.91
2018-09-19T09:10:43.036Z,1021.89
2018-09-19T09:11:42.690Z,1021.9
2018-09-19T09:12:42.848Z,1021.82
2018-09-19T09:13:42.680Z,1021.83
2018-09-19T09:14:42.703Z,1021.83
2018-09-19T09:15:43.102Z,1021.77
2018-09-19T09:16:42.871Z,1021.76
2018-09-19T09:17:42.793Z,1021.75
2018-09-19T09:18:43.118Z,1021.75
2018-09-19T09:19:42.817Z,1021.77
2018-09-19T09:20:42.753Z,1021.76
2018-09-19T09:21:42.698Z,1021.76
2018-09-19T09:22:42.692Z,1021.75
2018-09-19T09:23:42.774Z,1021.77
2018-09-19T09:24:43.053Z,1021.77
2018-09-19T09:25:42.782Z,1021.75
2018-09-19T09:26:42.904Z,1021.74
2018-09-19T09:27:42.694Z,1021.75
2018-09-19T09:28:42.706Z,1021.77
2018-09-19T09:29:42.819Z,1021.8
2018-09-19T09:30:42.682Z,1021.81
2018-09-19T09:31:42.697Z,1021.76
2018-09-19T09:32:42.678Z,1021.8
2018-09-19T09:33:42.720Z,1021.77
2018-09-19T09:34:42.712Z,1021.77
2018-09-19T09:35:43.025Z,1021.79
2018-09-19T09:36:42.775Z,1021.74
2018-09-19T09:37:42.684Z,1021.77
2018-09-19T09:38:42.717Z,1021.77
2018-09-19T09:39:42.695Z,1021.78
2018-09-19T09:40:42.751Z,1021.77
2018-09-19T09:41:42.700Z,1021.79
2018-09-19T09:42:42.972Z,1021.77
2018-09-19T09:43:42.771Z,1021.73
2018-09-19T09:44:42.766Z,1021.74
2018-09-19T09:45:42.728Z,1021.74
2018-09-19T09:46:42.731Z,1021.71
2018-09-19T09:47:42.743Z,1021.67
2018-09-19T09:48:43.123Z,1021.67
2018-09-19T09:49:42.912Z,1021.64
2018-09-19T09:50:42.688Z,1021.61
2018-09-19T09:51:42.716Z,1021.59
2018-09-19T09:52:42.730Z,1021.57
2018-09-19T09:53:42.734Z,1021.53
2018-09-19T09:54:42.725Z,1021.48
2018-09-19T09:55:42.762Z,1021.49
2018-09-19T09:56:42.710Z,1021.5
2018-09-19T09:57:42.761Z,1021.47
2018-09-19T09:58:42.724Z,1021.43
2018-09-19T09:59:42.727Z,1021.42
2018-09-19T10:00:42.764Z,1021.44
2018-09-19T10:01:43.168Z,1021.44
2018-09-19T10:02:42.736Z,1021.42
2018-09-19T10:03:42.772Z,1021.46
2018-09-19T10:04:42.710Z,1021.45
2018-09-19T10:05:43.121Z,1021.45
2018-09-19T10:06:42.933Z,1021.45
2018-09-19T10:07:42.980Z,1021.44
2018-09-19T10:08:43.050Z,1021.41
2018-09-19T10:09:42.709Z,1021.37
2018-09-19T10:10:42.759Z,1021.41
2018-09-19T10:11:42.760Z,1021.41
2018-09-19T10:12:43.589Z,1021.41
2018-09-19T10:13:42.937Z,1021.39
2018-09-19T10:14:42.720Z,1021.37
2018-09-19T10:15:42.754Z,1021.38
2018-09-19T10:16:42.770Z,1021.4
2018-09-19T10:17:42.824Z,1021.32
2018-09-19T10:18:42.789Z,1021.35
2018-09-19T10:19:42.756Z,1021.3
2018-09-19T10:20:42.751Z,1021.33
2018-09-19T10:21:43.287Z,1021.32
2018-09-19T10:22:42.777Z,1021.27
2018-09-19T10:23:42.774Z,1021.32
2018-09-19T10:24:42.770Z,1021.25
2018-09-19T10:25:43.167Z,1021.23
2018-09-19T10:26:42.756Z,1021.22
2018-09-19T10:27:42.759Z,1021.23
2018-09-19T10:28:42.774Z,1021.21
2018-09-19T10:29:42.977Z,1021.18
2018-09-19T10:30:42.995Z,1021.2
2018-09-19T10:31:42.736Z,1021.21
2018-09-19T10:32:42.753Z,1021.23
2018-09-19T10:33:42.938Z,1021.19
2018-09-19T10:34:43.033Z,1021.25
2018-09-19T10:35:42.772Z,1021.19
2018-09-19T10:36:43.083Z,1021.2
2018-09-19T10:37:43.020Z,1021.2
2018-09-19T10:38:42.869Z,1021.15
2018-09-19T10:39:42.828Z,1021.18
2018-09-19T10:40:42.993Z,1021.2
2018-09-19T10:41:42.822Z,1021.12
2018-09-19T10:42:43.167Z,1021.15
2018-09-19T10:43:42.774Z,1021.1
2018-09-19T10:44:42.786Z,1021.12
2018-09-19T10:45:42.800Z,1021.11
2018-09-19T10:46:42.991Z,1021.1
2018-09-19T10:47:43.039Z,1021.1
2018-09-19T10:48:42.800Z,1021.11
2018-09-19T10:49:43.229Z,1021.09
2018-09-19T10:50:42.974Z,1021.11
2018-09-19T10:51:42.959Z,1021.11
2018-09-19T10:52:42.886Z,1021.07
2018-09-19T10:53:43.115Z,1021.09
2018-09-19T10:54:42.804Z,1021.09
2018-09-19T10:55:42.857Z,1021.08
2018-09-19T10:56:42.861Z,1021.06
2018-09-19T10:57:42.968Z,1021.03
2018-09-19T10:58:42.826Z,1021.05
2018-09-19T10:59:42.805Z,1021.02
2018-09-19T11:00:42.842Z,1021.02
2018-09-19T11:01:42.766Z,1020.99
2018-09-19T11:02:42.771Z,1021.02
2018-09-19T11:03:42.804Z,1021.03
2018-09-19T11:04:43.505Z,1020.98
2018-09-19T11:05:42.810Z,1021.01
2018-09-19T11:06:42.773Z,1020.96
2018-09-19T11:07:43.134Z,1021.03
2018-09-19T11:08:42.830Z,1020.99
2018-09-19T11:09:42.790Z,1021.02
2018-09-19T11:10:42.887Z,1021.02
2018-09-19T11:11:42.876Z,1021.01
2018-09-19T11:12:42.782Z,1021.01
2018-09-19T11:13:42.804Z,1021.01
2018-09-19T11:14:42.808Z,1020.99
2018-09-19T11:15:43.083Z,1021.01
2018-09-19T11:16:42.813Z,1020.97
2018-09-19T11:17:42.788Z,1020.97
2018-09-19T11:18:42.784Z,1021.02
2018-09-19T11:19:42.776Z,1020.95
2018-09-19T11:20:42.822Z,1020.95
2018-09-19T11:21:42.793Z,1020.99
2018-09-19T11:22:42.939Z,1020.96
2018-09-19T11:23:42.825Z,1020.92
2018-09-19T11:24:42.801Z,1020.92
2018-09-19T11:25:42.939Z,1020.89
2018-09-19T11:26:42.801Z,1020.92
2018-09-19T11:27:48.807Z,1020.91
2018-09-19T11:28:42.815Z,1020.9
2018-09-19T11:29:42.864Z,1020.89
2018-09-19T11:30:42.881Z,1020.89
2018-09-19T11:31:42.852Z,1020.91
2018-09-19T11:32:43.148Z,1020.88
2018-09-19T11:33:42.790Z,1020.87
2018-09-19T11:34:42.955Z,1020.85
2018-09-19T11:35:43.130Z,1020.85
2018-09-19T11:36:42.804Z,1020.83
2018-09-19T11:37:42.814Z,1020.82
2018-09-19T11:38:43.260Z,1020.79
2018-09-19T11:39:42.941Z,1020.78
2018-09-19T11:40:43.049Z,1020.77
2018-09-19T11:41:42.803Z,1020.79
2018-09-19T11:42:43.181Z,1020.72
2018-09-19T11:43:44.007Z,1020.78
2018-09-19T11:44:43.070Z,1020.72
2018-09-19T11:45:43.224Z,1020.75
2018-09-19T11:46:43.196Z,1020.74
2018-09-19T11:47:43.119Z,1020.68
2018-09-19T11:48:44.458Z,1020.72
2018-09-19T11:49:44.258Z,1020.73
2018-09-19T11:50:43.237Z,1020.69
2018-09-19T11:51:43.047Z,1020.63
2018-09-19T11:52:43.052Z,1020.59
2018-09-19T11:53:42.943Z,1020.62
2018-09-19T11:54:43.177Z,1020.56
2018-09-19T11:55:43.164Z,1020.56
2018-09-19T11:56:42.971Z,1020.61
2018-09-19T11:57:43.721Z,1020.56
2018-09-19T11:58:44.342Z,1020.57
2018-09-19T11:59:43.084Z,1020.54
2018-09-19T12:00:43.005Z,1020.51
2018-09-19T12:01:43.213Z,1020.48
2018-09-19T12:02:43.006Z,1020.51
2018-09-19T12:03:43.122Z,1020.51
2018-09-19T12:04:43.432Z,1020.5
2018-09-19T12:05:43.347Z,1020.47
2018-09-19T12:06:43.129Z,1020.44
2018-09-19T12:07:43.050Z,1020.41
2018-09-19T12:08:43.186Z,1020.39
2018-09-19T12:09:43.463Z,1020.44